createdAt,value
2019-03-13T00:00:39.904Z,5.80
2019-03-13T00:03:21.212Z,9.90
2019-03-13T00:06:01.499Z,6.80
2019-03-13T00:08:42.409Z,6.63
2019-03-13T00:11:23.096Z,8.10
2019-03-13T00:14:03.577Z,10.03
2019-03-13T00:16:44.268Z,6.70
2019-03-13T00:19:25.124Z,8.50
2019-03-13T00:22:05.598Z,7.00
2019-03-13T00:24:46.384Z,14.93
2019-03-13T00:27:14.896Z,9.73
2019-03-13T00:30:02.772Z,6.87
2019-03-13T00:32:50.565Z,8.57
2019-03-13T00:35:31.585Z,4.83
2019-03-13T00:38:12.470Z,6.60
2019-03-13T00:40:53.321Z,5.00
2019-03-13T00:43:33.592Z,5.83
2019-03-13T00:46:14.821Z,5.50
2019-03-13T00:48:55.456Z,9.37
2019-03-13T00:51:37.089Z,8.30
2019-03-13T00:54:18.540Z,11.23
2019-03-13T00:56:47.039Z,8.77
2019-03-13T00:59:34.914Z,6.63
2019-03-13T01:02:35.140Z,11.80
2019-03-13T01:05:17.159Z,12.00
2019-03-13T01:07:57.468Z,8.50
2019-03-13T01:10:38.566Z,7.00
2019-03-13T01:13:19.329Z,13.50
2019-03-13T01:16:00.257Z,7.30
2019-03-13T01:21:40.280Z,5.17
2019-03-13T01:24:20.889Z,9.33
2019-03-13T01:27:01.585Z,12.43
2019-03-13T01:29:42.547Z,7.27
2019-03-13T01:32:25.017Z,17.00
2019-03-13T01:35:07.958Z,10.60
2019-03-13T01:37:48.928Z,9.27
2019-03-13T01:40:29.657Z,10.33
2019-03-13T01:43:10.240Z,10.73
2019-03-13T01:45:51.176Z,15.23
2019-03-13T01:48:32.082Z,10.87
2019-03-13T01:51:12.710Z,11.50
2019-03-13T01:53:53.615Z,8.70
2019-03-13T01:56:34.466Z,10.93
2019-03-13T01:59:15.411Z,6.10
2019-03-13T02:01:56.073Z,11.83
2019-03-13T02:04:24.933Z,5.73
2019-03-13T02:07:12.754Z,13.00
2019-03-13T02:10:00.554Z,13.37
2019-03-13T02:12:41.619Z,11.27
2019-03-13T02:15:22.129Z,9.67
2019-03-13T02:18:03.003Z,12.60
2019-03-13T02:20:43.923Z,10.47
2019-03-13T02:23:24.741Z,11.47
2019-03-13T02:26:05.550Z,11.83
2019-03-13T02:28:46.525Z,9.63
2019-03-13T02:31:27.461Z,12.87
2019-03-13T02:34:08.325Z,10.67
2019-03-13T02:36:36.867Z,12.57
2019-03-13T02:39:24.681Z,11.43
2019-03-13T02:42:05.004Z,12.80
2019-03-13T02:44:45.392Z,16.93
2019-03-13T02:47:26.564Z,11.00
2019-03-13T02:50:07.622Z,14.03
2019-03-13T02:52:47.994Z,11.37
2019-03-13T02:55:29.074Z,11.13
2019-03-13T02:57:57.543Z,20.03
2019-03-13T03:01:04.530Z,11.33
2019-03-13T03:06:28.887Z,10.77
2019-03-13T03:08:57.764Z,14.73
2019-03-13T03:11:38.484Z,11.67
2019-03-13T03:14:19.341Z,11.03
2019-03-13T03:17:01.824Z,9.87
2019-03-13T03:19:42.396Z,12.40
2019-03-13T03:22:23.135Z,17.97
2019-03-13T03:25:04.006Z,10.97
2019-03-13T03:27:44.878Z,14.13
2019-03-13T03:30:33.097Z,7.27
2019-03-13T03:33:21.295Z,12.27
2019-03-13T03:36:02.511Z,15.07
2019-03-13T03:38:43.018Z,12.33
2019-03-13T03:41:23.552Z,11.93
2019-03-13T03:44:04.261Z,10.47
2019-03-13T03:46:32.716Z,13.77
2019-03-13T03:49:20.566Z,13.63
2019-03-13T03:52:08.377Z,10.73
2019-03-13T03:54:56.179Z,13.30
2019-03-13T03:57:37.075Z,15.57
2019-03-13T04:00:17.860Z,14.47
2019-03-13T04:02:58.768Z,12.03
2019-03-13T04:05:27.472Z,13.97
2019-03-13T04:08:15.288Z,12.90
2019-03-13T04:11:03.083Z,13.20
2019-03-13T04:13:45.256Z,13.80
2019-03-13T04:16:26.080Z,12.23
2019-03-13T04:19:06.631Z,15.40
2019-03-13T04:21:47.636Z,16.97
2019-03-13T04:24:28.543Z,11.77
2019-03-13T04:27:08.951Z,14.53
2019-03-13T04:29:49.545Z,12.43
2019-03-13T04:32:18.009Z,18.27
2019-03-13T04:35:05.961Z,18.77
2019-03-13T04:37:53.753Z,15.07
2019-03-13T04:40:34.064Z,14.13
2019-03-13T04:43:14.573Z,16.63
2019-03-13T04:45:55.489Z,16.50
2019-03-13T04:48:36.379Z,23.40
2019-03-13T04:51:17.408Z,13.73
2019-03-13T04:53:57.780Z,20.03
2019-03-13T04:56:38.069Z,8.20
2019-03-13T04:59:18.645Z,11.57
2019-03-13T05:01:59.255Z,16.23
2019-03-13T05:04:40.196Z,18.80
2019-03-13T05:07:20.880Z,28.67
2019-03-13T05:09:49.345Z,12.40
2019-03-13T05:12:37.235Z,12.23
2019-03-13T05:15:24.734Z,16.80
2019-03-13T05:18:12.537Z,19.50
2019-03-13T05:20:53.309Z,22.67
2019-03-13T05:23:34.096Z,16.00
2019-03-13T05:26:14.838Z,14.03
2019-03-13T05:28:55.557Z,13.53
2019-03-13T05:31:36.184Z,21.63
2019-03-13T05:34:17.092Z,15.63
2019-03-13T05:36:58.081Z,14.20
2019-03-13T05:39:38.635Z,25.60
2019-03-13T05:42:19.529Z,16.60
2019-03-13T05:45:00.380Z,14.07
2019-03-13T05:47:41.006Z,11.00
2019-03-13T05:50:21.957Z,17.10
2019-03-13T05:53:02.708Z,19.03
2019-03-13T05:55:43.315Z,21.47
2019-03-13T05:58:24.260Z,16.83
2019-03-13T06:01:04.804Z,14.50
2019-03-13T06:03:45.678Z,15.23
2019-03-13T06:06:26.537Z,13.30
2019-03-13T06:09:06.822Z,20.07
2019-03-13T06:14:48.995Z,19.17
2019-03-13T06:17:29.838Z,19.20
2019-03-13T06:20:10.832Z,12.23
2019-03-13T06:22:51.913Z,21.17
2019-03-13T06:25:32.647Z,16.53
2019-03-13T06:28:13.438Z,13.73
2019-03-13T06:30:54.133Z,26.67
2019-03-13T06:33:34.733Z,15.90
2019-03-13T06:36:03.189Z,21.63
2019-03-13T06:38:50.995Z,16.73
2019-03-13T06:41:38.787Z,17.93
2019-03-13T06:44:19.256Z,13.67
2019-03-13T06:46:59.963Z,18.97
2019-03-13T06:49:40.735Z,15.47
2019-03-13T06:52:21.733Z,15.13
2019-03-13T06:55:02.197Z,18.00
2019-03-13T06:57:42.942Z,14.17
2019-03-13T07:06:27.080Z,16.40
2019-03-13T07:09:09.857Z,22.90
2019-03-13T07:11:52.544Z,27.50
2019-03-13T07:14:37.736Z,20.73
2019-03-13T07:17:20.590Z,14.93
2019-03-13T07:20:20.719Z,15.50
2019-03-13T07:23:05.605Z,22.90
2019-03-13T07:25:51.137Z,17.93
2019-03-13T07:28:52.539Z,21.73
2019-03-13T07:31:52.968Z,15.73
2019-03-13T07:34:35.096Z,22.17
2019-03-13T07:37:35.533Z,14.10
2019-03-13T07:40:18.290Z,23.13
2019-03-13T07:43:03.620Z,26.77
2019-03-13T07:45:48.603Z,17.77
2019-03-13T07:48:36.237Z,11.77
2019-03-13T07:51:23.994Z,15.93
2019-03-13T07:54:23.923Z,16.77
2019-03-13T08:00:00.392Z,20.50
2019-03-13T08:03:00.249Z,8.87
2019-03-13T08:05:42.839Z,15.33
2019-03-13T08:08:42.398Z,13.73
2019-03-13T08:11:27.529Z,21.67
2019-03-13T08:17:13.556Z,16.13
2019-03-13T08:23:04.129Z,18.80
2019-03-13T08:25:51.823Z,17.40
2019-03-13T08:28:58.823Z,15.40
2019-03-13T08:31:44.536Z,16.83
2019-03-13T08:34:44.507Z,13.43
2019-03-13T08:37:29.946Z,11.17
2019-03-13T08:40:14.579Z,18.97
2019-03-13T08:42:59.975Z,15.47
2019-03-13T08:48:53.855Z,20.63
2019-03-13T08:51:41.524Z,17.67
2019-03-13T09:00:34.333Z,19.60
2019-03-13T09:06:42.699Z,16.93
2019-03-13T09:09:28.196Z,24.37
2019-03-13T09:12:13.152Z,22.17
2019-03-13T09:15:13.068Z,17.57
2019-03-13T09:18:12.818Z,21.97
2019-03-13T09:21:13.226Z,18.17
2019-03-13T09:23:58.839Z,21.53
2019-03-13T09:26:44.362Z,15.03
2019-03-13T09:29:32.139Z,22.87
2019-03-13T09:32:39.304Z,18.10
2019-03-13T09:35:38.745Z,23.73
2019-03-13T09:44:38.487Z,18.10
2019-03-13T09:47:26.127Z,22.00
2019-03-13T09:50:33.308Z,15.57
2019-03-13T09:53:15.435Z,28.60
2019-03-13T09:55:57.498Z,22.50
2019-03-13T09:58:40.276Z,12.20
2019-03-13T10:01:22.319Z,18.37
2019-03-13T10:04:05.039Z,15.67
2019-03-13T10:06:52.773Z,23.07
2019-03-13T10:09:59.758Z,20.00
2019-03-13T10:12:42.064Z,19.40
2019-03-13T10:15:27.799Z,19.77
2019-03-13T10:18:10.459Z,18.57
2019-03-13T10:21:10.735Z,15.10
2019-03-13T10:23:56.177Z,21.67
2019-03-13T10:26:56.268Z,20.57
2019-03-13T10:29:56.683Z,26.33
2019-03-13T10:32:39.463Z,23.57
2019-03-13T10:35:21.920Z,16.03
2019-03-13T10:38:13.767Z,23.70
2019-03-13T10:41:06.421Z,15.83
2019-03-13T10:43:52.147Z,25.00
2019-03-13T10:46:39.862Z,20.20
2019-03-13T10:49:46.919Z,23.67
2019-03-13T10:52:29.017Z,17.57
2019-03-13T10:55:29.287Z,19.97
2019-03-13T10:58:12.119Z,19.07
2019-03-13T11:01:12.452Z,15.23
2019-03-13T11:06:54.970Z,14.10
2019-03-13T11:12:28.368Z,10.33
2019-03-13T11:15:10.945Z,15.87
2019-03-13T11:21:04.766Z,14.77
2019-03-13T11:23:45.243Z,13.43
2019-03-13T11:26:30.463Z,15.67
2019-03-13T11:29:12.468Z,12.37
2019-03-13T11:32:12.656Z,9.53
2019-03-13T11:34:57.680Z,12.57
2019-03-13T11:37:57.514Z,12.67
2019-03-13T11:41:04.516Z,21.10
2019-03-13T11:44:03.935Z,18.30
2019-03-13T11:46:48.940Z,17.23
2019-03-13T11:49:57.466Z,16.23
2019-03-13T11:53:04.468Z,13.97
2019-03-13T11:55:50.098Z,15.20
2019-03-13T11:58:35.467Z,16.53
2019-03-13T12:01:18.099Z,14.97
2019-03-13T12:04:18.089Z,19.20
2019-03-13T12:07:02.862Z,15.23
2019-03-13T12:10:02.808Z,17.43
2019-03-13T12:12:44.805Z,12.73
2019-03-13T12:15:45.142Z,11.60
2019-03-13T12:18:44.999Z,18.83
2019-03-13T12:21:27.001Z,15.30
2019-03-13T12:24:26.504Z,15.53
2019-03-13T12:27:08.832Z,17.67
2019-03-13T12:29:51.368Z,20.10
2019-03-13T12:32:33.886Z,16.87
2019-03-13T12:38:11.106Z,16.83
2019-03-13T12:40:53.863Z,20.07
2019-03-13T12:43:53.996Z,15.50
2019-03-13T12:46:38.896Z,15.87
2019-03-13T12:49:39.218Z,20.20
2019-03-13T12:52:39.677Z,14.33
2019-03-13T12:55:39.204Z,18.50
2019-03-13T12:58:39.602Z,17.33
2019-03-13T13:04:17.057Z,16.10
2019-03-13T13:06:59.557Z,21.17
2019-03-13T13:09:59.555Z,20.00
2019-03-13T13:12:47.269Z,16.77
2019-03-13T13:15:47.312Z,21.30
2019-03-13T13:18:29.458Z,18.67
2019-03-13T13:21:10.505Z,16.40
2019-03-13T13:23:39.130Z,18.70
2019-03-13T13:26:27.755Z,17.67
2019-03-13T13:29:15.554Z,12.33
2019-03-13T13:31:56.677Z,11.80
2019-03-13T13:34:38.202Z,14.07
2019-03-13T13:37:06.845Z,11.63
2019-03-13T13:39:54.650Z,13.00
2019-03-13T13:42:23.351Z,14.23
2019-03-13T13:45:33.016Z,9.83
2019-03-13T13:48:12.681Z,12.73
2019-03-13T13:50:53.493Z,9.23
2019-03-13T13:53:34.012Z,12.87
2019-03-13T13:56:14.752Z,15.33
2019-03-13T13:58:55.725Z,15.23
2019-03-13T14:01:36.089Z,11.47
2019-03-13T14:04:16.900Z,8.27
2019-03-13T14:06:45.363Z,10.87
2019-03-13T14:09:33.268Z,10.03
2019-03-13T14:12:01.862Z,9.43
2019-03-13T14:14:49.733Z,9.93
2019-03-13T14:17:18.192Z,11.97
2019-03-13T14:20:26.771Z,7.83
2019-03-13T14:23:14.716Z,5.27
2019-03-13T14:25:43.283Z,8.03
2019-03-13T14:28:31.090Z,6.90
2019-03-13T14:31:11.845Z,6.10
2019-03-13T14:33:40.414Z,7.37
2019-03-13T14:36:28.277Z,11.57
2019-03-13T14:39:09.226Z,6.87
2019-03-13T14:41:37.748Z,10.63
2019-03-13T14:44:25.549Z,11.77
2019-03-13T14:47:13.418Z,14.40
2019-03-13T14:49:54.986Z,8.07
2019-03-13T14:52:35.926Z,12.70
2019-03-13T14:55:44.513Z,7.90
2019-03-13T14:58:32.359Z,11.87
2019-03-13T15:01:12.723Z,8.03
2019-03-13T15:03:53.117Z,9.97
2019-03-13T15:06:33.848Z,10.23
2019-03-13T15:09:14.395Z,15.03
2019-03-13T15:11:55.285Z,14.03
2019-03-13T15:14:35.969Z,11.60
2019-03-13T15:17:16.683Z,13.70
2019-03-13T15:19:57.437Z,14.77
2019-03-13T15:22:37.895Z,12.33
2019-03-13T15:25:18.432Z,13.47
2019-03-13T15:27:59.154Z,12.63
2019-03-13T15:30:39.796Z,21.27
2019-03-13T15:33:20.581Z,11.37
2019-03-13T15:36:01.630Z,14.93
2019-03-13T15:38:42.438Z,11.23
2019-03-13T15:41:23.600Z,15.50
2019-03-13T15:44:04.629Z,19.70
2019-03-13T15:46:45.267Z,13.60
2019-03-13T15:49:13.785Z,18.20
2019-03-13T15:52:01.671Z,12.93
2019-03-13T15:54:42.614Z,10.23
2019-03-13T15:57:11.222Z,20.30
2019-03-13T15:59:59.109Z,15.13
2019-03-13T16:02:27.567Z,19.30
2019-03-13T16:05:15.471Z,18.57
2019-03-13T16:08:03.491Z,17.03
2019-03-13T16:10:45.020Z,18.73
2019-03-13T16:13:25.664Z,17.60
2019-03-13T16:16:06.379Z,18.10
2019-03-13T16:18:47.104Z,22.40
2019-03-13T16:21:28.059Z,19.57
2019-03-13T16:30:22.119Z,16.43
2019-03-13T16:33:03.211Z,16.20
2019-03-13T16:35:43.945Z,21.23
2019-03-13T16:38:24.671Z,19.77
2019-03-13T16:43:51.643Z,13.90
2019-03-13T16:46:39.462Z,7.70
2019-03-13T16:49:20.597Z,12.23
2019-03-13T16:52:01.434Z,10.30
2019-03-13T16:54:42.148Z,12.77
2019-03-13T16:57:23.180Z,7.70
2019-03-13T17:00:04.030Z,11.97
2019-03-13T17:02:44.575Z,13.87
2019-03-13T17:05:25.456Z,15.67
2019-03-13T17:08:06.252Z,13.80
2019-03-13T17:10:47.273Z,22.00
2019-03-13T17:13:28.253Z,24.37
2019-03-13T17:16:09.417Z,22.83
2019-03-13T17:18:52.045Z,17.77
2019-03-13T17:21:20.594Z,16.47
2019-03-13T17:23:49.117Z,20.83
2019-03-13T17:26:36.921Z,22.83
2019-03-13T17:29:25.041Z,23.60
2019-03-13T17:32:05.378Z,19.13
2019-03-13T17:34:46.397Z,21.37
2019-03-13T17:37:27.480Z,14.30
2019-03-13T17:40:08.175Z,17.13
2019-03-13T17:42:49.331Z,19.20
2019-03-13T17:45:30.000Z,13.10
2019-03-13T17:48:10.798Z,10.43
2019-03-13T17:50:51.495Z,7.13
2019-03-13T17:53:32.393Z,11.33
2019-03-13T17:56:13.264Z,7.70
2019-03-13T17:58:41.806Z,7.17
2019-03-13T18:01:29.579Z,6.40
2019-03-13T18:04:10.655Z,9.47
2019-03-13T18:06:51.747Z,9.53
2019-03-13T18:09:34.787Z,13.70
2019-03-13T18:12:14.985Z,10.73
2019-03-13T18:14:56.134Z,10.23
2019-03-13T18:17:25.000Z,10.83
2019-03-13T18:23:20.233Z,10.03
2019-03-13T18:26:01.140Z,7.97
2019-03-13T18:28:41.839Z,12.00
2019-03-13T18:31:22.203Z,9.17
2019-03-13T18:34:03.199Z,7.17
2019-03-13T18:36:44.314Z,4.77
2019-03-13T18:39:25.102Z,8.20
2019-03-13T18:41:53.572Z,8.93
2019-03-13T18:44:41.470Z,11.80
2019-03-13T18:47:29.597Z,16.20
2019-03-13T18:50:12.404Z,11.57
2019-03-13T18:52:53.244Z,9.87
2019-03-13T18:55:34.165Z,12.03
2019-03-13T18:58:15.193Z,9.07
2019-03-13T19:00:58.256Z,17.20
2019-03-13T19:03:38.125Z,17.77
2019-03-13T19:06:06.678Z,14.67
2019-03-13T19:08:54.813Z,13.43
2019-03-13T19:11:36.282Z,20.83
2019-03-13T19:14:04.852Z,24.00
2019-03-13T19:16:53.880Z,19.37
2019-03-13T19:19:22.359Z,23.53
2019-03-13T19:22:10.218Z,21.30
2019-03-13T19:24:51.615Z,19.07
2019-03-13T19:27:32.772Z,20.27
2019-03-13T19:30:01.396Z,19.13
2019-03-13T19:32:49.557Z,17.90
2019-03-13T19:35:30.359Z,18.13
2019-03-13T19:38:11.108Z,20.33
2019-03-13T19:40:52.011Z,19.20
2019-03-13T19:43:32.710Z,25.13
2019-03-13T19:46:13.167Z,22.00
2019-03-13T19:48:41.725Z,17.33
2019-03-13T19:51:10.413Z,18.47
2019-03-13T19:53:59.320Z,23.20
2019-03-13T19:56:47.138Z,16.53
2019-03-13T19:59:28.150Z,14.90
2019-03-13T20:02:08.762Z,16.97
2019-03-13T20:04:50.156Z,15.13
2019-03-13T20:07:33.029Z,15.23
2019-03-13T20:10:15.563Z,13.63
2019-03-13T20:15:45.856Z,13.23
2019-03-13T20:18:27.540Z,12.37
2019-03-13T20:21:08.710Z,8.43
2019-03-13T20:23:37.331Z,8.33
2019-03-13T20:26:25.203Z,13.40
2019-03-13T20:29:13.681Z,10.97
2019-03-13T20:31:55.207Z,7.10
2019-03-13T20:34:36.325Z,8.57
2019-03-13T20:37:17.832Z,10.47
2019-03-13T20:39:46.375Z,7.03
2019-03-13T20:42:53.865Z,6.47
2019-03-13T20:46:00.947Z,9.73
2019-03-13T20:48:43.326Z,8.00
2019-03-13T20:51:25.312Z,8.67
2019-03-13T20:54:05.563Z,5.33
2019-03-13T20:56:50.592Z,4.77
2019-03-13T20:59:35.061Z,5.87
2019-03-13T21:02:15.421Z,10.17
2019-03-13T21:04:56.472Z,4.97
2019-03-13T21:07:25.030Z,4.90
2019-03-13T21:10:13.080Z,6.10
2019-03-13T21:12:41.624Z,7.47
2019-03-13T21:15:29.540Z,4.93
2019-03-13T21:18:17.396Z,3.83
2019-03-13T21:20:45.875Z,6.83
2019-03-13T21:23:33.673Z,6.97
2019-03-13T21:26:02.211Z,5.33
2019-03-13T21:28:50.025Z,10.77
2019-03-13T21:31:30.979Z,10.43
2019-03-13T21:34:11.802Z,3.30
2019-03-13T21:36:40.271Z,9.20
2019-03-13T21:39:28.101Z,5.67
2019-03-13T21:45:21.839Z,7.97
2019-03-13T21:47:53.889Z,12.63
2019-03-13T21:50:34.392Z,12.90
2019-03-13T21:53:15.680Z,20.57
2019-03-13T21:55:56.146Z,14.07
2019-03-13T21:58:36.883Z,13.70
2019-03-13T22:01:20.074Z,17.23
2019-03-13T22:04:00.164Z,21.43
2019-03-13T22:06:40.746Z,17.93
2019-03-13T22:09:09.208Z,22.47
2019-03-13T22:11:57.022Z,16.50
2019-03-13T22:14:44.955Z,13.63
2019-03-13T22:17:25.776Z,19.13
2019-03-13T22:20:06.568Z,18.30
2019-03-13T22:22:47.469Z,16.57
2019-03-13T22:25:28.061Z,20.17
2019-03-13T22:28:08.929Z,16.60
2019-03-13T22:30:49.763Z,25.57
2019-03-13T22:33:30.358Z,18.50
2019-03-13T22:36:10.992Z,20.23
2019-03-13T22:38:51.813Z,24.47
2019-03-13T22:41:32.641Z,20.27
2019-03-13T22:44:13.085Z,20.77
2019-03-13T22:46:53.860Z,26.30
2019-03-13T22:49:34.523Z,12.80
2019-03-13T22:52:15.472Z,18.70
2019-03-13T22:54:56.557Z,17.73
2019-03-13T22:57:37.407Z,16.17
2019-03-13T23:00:17.792Z,15.53
2019-03-13T23:02:58.217Z,13.07
2019-03-13T23:05:38.903Z,18.07
2019-03-13T23:08:19.612Z,16.67
2019-03-13T23:11:02.257Z,17.03
2019-03-13T23:13:43.465Z,19.83
2019-03-13T23:16:24.220Z,19.93
2019-03-13T23:19:04.881Z,15.27
2019-03-13T23:21:45.594Z,16.93
2019-03-13T23:24:26.529Z,16.97
2019-03-13T23:27:07.075Z,25.17
2019-03-13T23:29:47.588Z,17.53
2019-03-13T23:32:28.038Z,24.13
2019-03-13T23:35:08.843Z,16.30
2019-03-13T23:37:49.849Z,15.63
2019-03-13T23:40:30.762Z,16.67
2019-03-13T23:43:11.590Z,17.73
2019-03-13T23:45:52.397Z,14.37
2019-03-13T23:48:33.371Z,17.40
2019-03-13T23:51:01.833Z,15.70
2019-03-13T23:53:49.674Z,23.43
2019-03-13T23:56:37.534Z,14.53
2019-03-13T23:59:06.019Z,11.90
